sensor_id;sensor_type;location;lat;lon;timestamp;P1;durP1;ratioP1;P2;durP2;ratioP2
58697;SDS011;44475;53.206;-6.106;2022-11-20T00:01:31;5.35;;;2.28;;
58697;SDS011;44475;53.206;-6.106;2022-11-20T00:04:02;5.60;;;2.35;;
58697;SDS011;44475;53.206;-6.106;2022-11-20T00:06:30;3.45;;;2.10;;
58697;SDS011;44475;53.206;-6.106;2022-11-20T00:08:58;4.75;;;2.28;;
58697;SDS011;44475;53.206;-6.106;2022-11-20T00:11:27;4.38;;;2.30;;
58697;SDS011;44475;53.206;-6.106;2022-11-20T00:13:59;5.97;;;2.13;;
58697;SDS011;44475;53.206;-6.106;2022-11-20T00:16:27;6.07;;;2.40;;
58697;SDS011;44475;53.206;-6.106;2022-11-20T00:18:59;4.93;;;2.23;;
58697;SDS011;44475;53.206;-6.106;2022-11-20T00:21:26;4.75;;;2.20;;
58697;SDS011;44475;53.206;-6.106;2022-11-20T00:23:55;4.93;;;2.03;;
58697;SDS011;44475;53.206;-6.106;2022-11-20T00:26:27;4.53;;;2.00;;
58697;SDS011;44475;53.206;-6.106;2022-11-20T00:28:58;4.95;;;2.17;;
58697;SDS011;44475;53.206;-6.106;2022-11-20T00:31:28;5.68;;;2.40;;
58697;SDS011;44475;53.206;-6.106;2022-11-20T00:34:08;3.75;;;2.08;;
58697;SDS011;44475;53.206;-6.106;2022-11-20T00:36:35;4.95;;;2.17;;
58697;SDS011;44475;53.206;-6.106;2022-11-20T00:39:01;4.10;;;2.20;;
58697;SDS011;44475;53.206;-6.106;2022-11-20T00:41:35;5.15;;;2.20;;
58697;SDS011;44475;53.206;-6.106;2022-11-20T00:44:04;4.15;;;2.00;;
58697;SDS011;44475;53.206;-6.106;2022-11-20T00:46:32;4.05;;;1.90;;
58697;SDS011;44475;53.206;-6.106;2022-11-20T00:48:59;5.20;;;2.05;;
58697;SDS011;44475;53.206;-6.106;2022-11-20T00:51:26;4.45;;;2.22;;
58697;SDS011;44475;53.206;-6.106;2022-11-20T00:54:00;4.07;;;1.85;;
58697;SDS011;44475;53.206;-6.106;2022-11-20T00:56:27;4.18;;;2.17;;
58697;SDS011;44475;53.206;-6.106;2022-11-20T00:58:55;3.75;;;2.00;;
58697;SDS011;44475;53.206;-6.106;2022-11-20T01:01:25;4.40;;;2.10;;
58697;SDS011;44475;53.206;-6.106;2022-11-20T01:03:55;4.60;;;2.00;;
58697;SDS011;44475;53.206;-6.106;2022-11-20T01:06:31;3.40;;;1.90;;
58697;SDS011;44475;53.206;-6.106;2022-11-20T01:09:05;5.25;;;2.10;;
58697;SDS011;44475;53.206;-6.106;2022-11-20T01:11:36;3.95;;;2.00;;
58697;SDS011;44475;53.206;-6.106;2022-11-20T01:14:10;4.85;;;2.15;;
58697;SDS011;44475;53.206;-6.106;2022-11-20T01:16:44;4.53;;;2.10;;
58697;SDS011;44475;53.206;-6.106;2022-11-20T01:19:15;4.43;;;1.90;;
58697;SDS011;44475;53.206;-6.106;2022-11-20T01:21:46;6.03;;;2.28;;
58697;SDS011;44475;53.206;-6.106;2022-11-20T01:24:17;4.68;;;2.25;;
58697;SDS011;44475;53.206;-6.106;2022-11-20T01:26:47;4.88;;;2.08;;
58697;SDS011;44475;53.206;-6.106;2022-11-20T01:29:32;5.03;;;2.10;;
58697;SDS011;44475;53.206;-6.106;2022-11-20T01:31:58;6.07;;;1.88;;
58697;SDS011;44475;53.206;-6.106;2022-11-20T01:34:26;5.18;;;1.95;;
58697;SDS011;44475;53.206;-6.106;2022-11-20T01:36:52;5.85;;;2.05;;
58697;SDS011;44475;53.206;-6.106;2022-11-20T01:39:25;5.57;;;2.05;;
58697;SDS011;44475;53.206;-6.106;2022-11-20T01:42:11;3.53;;;1.90;;
58697;SDS011;44475;53.206;-6.106;2022-11-20T01:44:58;3.83;;;1.77;;
58697;SDS011;44475;53.206;-6.106;2022-11-20T01:47:47;3.47;;;1.80;;
58697;SDS011;44475;53.206;-6.106;2022-11-20T01:50:32;4.32;;;1.92;;
58697;SDS011;44475;53.206;-6.106;2022-11-20T01:53:00;5.10;;;2.10;;
58697;SDS011;44475;53.206;-6.106;2022-11-20T01:55:31;5.55;;;2.00;;
58697;SDS011;44475;53.206;-6.106;2022-11-20T01:58:11;4.03;;;1.95;;
58697;SDS011;44475;53.206;-6.106;2022-11-20T02:00:46;5.65;;;2.25;;
58697;SDS011;44475;53.206;-6.106;2022-11-20T02:03:22;5.63;;;2.22;;
58697;SDS011;44475;53.206;-6.106;2022-11-20T02:09:00;4.63;;;2.00;;
58697;SDS011;44475;53.206;-6.106;2022-11-20T02:11:26;4.93;;;1.92;;
58697;SDS011;44475;53.206;-6.106;2022-11-20T02:13:59;5.20;;;1.83;;
58697;SDS011;44475;53.206;-6.106;2022-11-20T02:19:02;4.77;;;2.20;;
58697;SDS011;44475;53.206;-6.106;2022-11-20T02:24:49;4.63;;;2.08;;
58697;SDS011;44475;53.206;-6.106;2022-11-20T02:27:19;6.15;;;1.90;;
58697;SDS011;44475;53.206;-6.106;2022-11-20T02:29:52;3.75;;;1.80;;
58697;SDS011;44475;53.206;-6.106;2022-11-20T02:32:26;4.20;;;2.00;;
58697;SDS011;44475;53.206;-6.106;2022-11-20T02:34:58;4.67;;;1.97;;
58697;SDS011;44475;53.206;-6.106;2022-11-20T02:37:38;3.97;;;1.88;;
58697;SDS011;44475;53.206;-6.106;2022-11-20T02:40:06;4.88;;;2.10;;
58697;SDS011;44475;53.206;-6.106;2022-11-20T02:42:33;5.53;;;1.73;;
58697;SDS011;44475;53.206;-6.106;2022-11-20T02:44:59;4.85;;;2.05;;
58697;SDS011;44475;53.206;-6.106;2022-11-20T02:47:33;4.88;;;1.88;;
58697;SDS011;44475;53.206;-6.106;2022-11-20T02:49:59;6.45;;;2.00;;
58697;SDS011;44475;53.206;-6.106;2022-11-20T02:52:26;5.80;;;1.85;;
58697;SDS011;44475;53.206;-6.106;2022-11-20T02:54:55;3.83;;;2.00;;
58697;SDS011;44475;53.206;-6.106;2022-11-20T02:57:23;4.10;;;1.90;;
58697;SDS011;44475;53.206;-6.106;2022-11-20T02:59:52;3.78;;;1.90;;
58697;SDS011;44475;53.206;-6.106;2022-11-20T03:02:19;4.20;;;2.13;;
58697;SDS011;44475;53.206;-6.106;2022-11-20T03:04:47;4.63;;;1.95;;
58697;SDS011;44475;53.206;-6.106;2022-11-20T03:07:14;4.32;;;1.92;;
58697;SDS011;44475;53.206;-6.106;2022-11-20T03:09:41;4.50;;;2.10;;
58697;SDS011;44475;53.206;-6.106;2022-11-20T03:12:08;3.78;;;1.88;;
58697;SDS011;44475;53.206;-6.106;2022-11-20T03:14:35;4.70;;;2.13;;
58697;SDS011;44475;53.206;-6.106;2022-11-20T03:17:01;3.97;;;1.80;;
58697;SDS011;44475;53.206;-6.106;2022-11-20T03:19:27;6.32;;;1.90;;
58697;SDS011;44475;53.206;-6.106;2022-11-20T03:21:54;4.10;;;1.85;;
58697;SDS011;44475;53.206;-6.106;2022-11-20T03:24:21;4.82;;;1.85;;
58697;SDS011;44475;53.206;-6.106;2022-11-20T03:26:57;6.05;;;2.00;;
58697;SDS011;44475;53.206;-6.106;2022-11-20T03:29:23;3.85;;;1.75;;
58697;SDS011;44475;53.206;-6.106;2022-11-20T03:31:50;5.30;;;2.03;;
58697;SDS011;44475;53.206;-6.106;2022-11-20T03:34:19;4.65;;;1.88;;
58697;SDS011;44475;53.206;-6.106;2022-11-20T03:36:47;6.28;;;1.85;;
58697;SDS011;44475;53.206;-6.106;2022-11-20T03:39:14;3.83;;;1.70;;
58697;SDS011;44475;53.206;-6.106;2022-11-20T03:41:41;3.78;;;1.75;;
58697;SDS011;44475;53.206;-6.106;2022-11-20T03:44:10;4.90;;;2.20;;
58697;SDS011;44475;53.206;-6.106;2022-11-20T03:46:38;3.83;;;1.63;;
58697;SDS011;44475;53.206;-6.106;2022-11-20T03:49:04;4.82;;;1.70;;
58697;SDS011;44475;53.206;-6.106;2022-11-20T03:51:32;4.43;;;1.80;;
58697;SDS011;44475;53.206;-6.106;2022-11-20T03:54:02;3.63;;;1.80;;
58697;SDS011;44475;53.206;-6.106;2022-11-20T03:56:31;4.70;;;1.90;;
58697;SDS011;44475;53.206;-6.106;2022-11-20T03:59:09;3.72;;;1.70;;
58697;SDS011;44475;53.206;-6.106;2022-11-20T04:01:41;4.88;;;1.90;;
58697;SDS011;44475;53.206;-6.106;2022-11-20T04:04:08;3.80;;;1.75;;
58697;SDS011;44475;53.206;-6.106;2022-11-20T04:06:38;5.00;;;1.85;;
58697;SDS011;44475;53.206;-6.106;2022-11-20T04:09:19;4.60;;;1.88;;
58697;SDS011;44475;53.206;-6.106;2022-11-20T04:11:47;4.15;;;1.80;;
58697;SDS011;44475;53.206;-6.106;2022-11-20T04:14:15;4.25;;;1.90;;
58697;SDS011;44475;53.206;-6.106;2022-11-20T04:16:45;4.03;;;1.80;;
58697;SDS011;44475;53.206;-6.106;2022-11-20T04:19:14;3.72;;;1.70;;
58697;SDS011;44475;53.206;-6.106;2022-11-20T04:21:50;3.50;;;1.80;;
58697;SDS011;44475;53.206;-6.106;2022-11-20T04:24:17;4.22;;;1.70;;
58697;SDS011;44475;53.206;-6.106;2022-11-20T04:26:43;5.57;;;1.75;;
58697;SDS011;44475;53.206;-6.106;2022-11-20T04:29:11;4.07;;;1.73;;
58697;SDS011;44475;53.206;-6.106;2022-11-20T04:31:37;5.10;;;1.90;;
58697;SDS011;44475;53.206;-6.106;2022-11-20T04:34:04;3.30;;;1.60;;
58697;SDS011;44475;53.206;-6.106;2022-11-20T04:36:32;2.92;;;1.80;;
58697;SDS011;44475;53.206;-6.106;2022-11-20T04:39:01;5.28;;;1.80;;
58697;SDS011;44475;53.206;-6.106;2022-11-20T04:41:30;4.35;;;1.80;;
58697;SDS011;44475;53.206;-6.106;2022-11-20T04:44:02;3.70;;;1.70;;
58697;SDS011;44475;53.206;-6.106;2022-11-20T04:46:30;3.97;;;1.67;;
58697;SDS011;44475;53.206;-6.106;2022-11-20T04:49:10;3.53;;;1.70;;
58697;SDS011;44475;53.206;-6.106;2022-11-20T04:51:38;4.43;;;1.60;;
58697;SDS011;44475;53.206;-6.106;2022-11-20T04:54:04;3.67;;;1.90;;
58697;SDS011;44475;53.206;-6.106;2022-11-20T04:56:30;3.25;;;1.55;;
58697;SDS011;44475;53.206;-6.106;2022-11-20T04:59:00;3.83;;;1.58;;
58697;SDS011;44475;53.206;-6.106;2022-11-20T05:01:29;3.30;;;1.70;;
58697;SDS011;44475;53.206;-6.106;2022-11-20T05:03:59;3.30;;;1.77;;
58697;SDS011;44475;53.206;-6.106;2022-11-20T05:06:27;4.35;;;1.70;;
58697;SDS011;44475;53.206;-6.106;2022-11-20T05:09:02;3.85;;;1.83;;
58697;SDS011;44475;53.206;-6.106;2022-11-20T05:11:34;4.45;;;1.67;;
58697;SDS011;44475;53.206;-6.106;2022-11-20T05:14:01;3.47;;;1.58;;
58697;SDS011;44475;53.206;-6.106;2022-11-20T05:16:27;3.67;;;1.70;;
58697;SDS011;44475;53.206;-6.106;2022-11-20T05:18:53;4.63;;;1.80;;
58697;SDS011;44475;53.206;-6.106;2022-11-20T05:21:20;3.33;;;1.73;;
58697;SDS011;44475;53.206;-6.106;2022-11-20T05:23:47;4.35;;;1.80;;
58697;SDS011;44475;53.206;-6.106;2022-11-20T05:26:22;5.38;;;1.75;;
58697;SDS011;44475;53.206;-6.106;2022-11-20T05:28:49;2.97;;;1.60;;
58697;SDS011;44475;53.206;-6.106;2022-11-20T05:31:18;3.45;;;1.60;;
58697;SDS011;44475;53.206;-6.106;2022-11-20T05:33:49;4.60;;;1.60;;
58697;SDS011;44475;53.206;-6.106;2022-11-20T05:36:17;2.70;;;1.50;;
58697;SDS011;44475;53.206;-6.106;2022-11-20T05:38:43;3.13;;;1.60;;
58697;SDS011;44475;53.206;-6.106;2022-11-20T05:41:11;5.45;;;2.00;;
58697;SDS011;44475;53.206;-6.106;2022-11-20T05:43:43;3.97;;;1.73;;
58697;SDS011;44475;53.206;-6.106;2022-11-20T05:46:11;3.17;;;1.60;;
58697;SDS011;44475;53.206;-6.106;2022-11-20T05:48:39;4.18;;;1.73;;
58697;SDS011;44475;53.206;-6.106;2022-11-20T05:51:14;3.50;;;1.60;;
58697;SDS011;44475;53.206;-6.106;2022-11-20T05:53:58;5.40;;;1.80;;
58697;SDS011;44475;53.206;-6.106;2022-11-20T05:56:27;3.95;;;1.70;;
58697;SDS011;44475;53.206;-6.106;2022-11-20T05:58:54;3.08;;;1.60;;
58697;SDS011;44475;53.206;-6.106;2022-11-20T06:01:25;4.75;;;1.80;;
58697;SDS011;44475;53.206;-6.106;2022-11-20T06:03:54;2.60;;;1.50;;
58697;SDS011;44475;53.206;-6.106;2022-11-20T06:06:21;2.45;;;1.48;;
58697;SDS011;44475;53.206;-6.106;2022-11-20T06:08:52;2.97;;;1.60;;
58697;SDS011;44475;53.206;-6.106;2022-11-20T06:11:22;3.50;;;1.70;;
58697;SDS011;44475;53.206;-6.106;2022-11-20T06:13:50;2.88;;;1.50;;
58697;SDS011;44475;53.206;-6.106;2022-11-20T06:16:18;2.88;;;1.50;;
58697;SDS011;44475;53.206;-6.106;2022-11-20T06:18:45;4.53;;;1.63;;
58697;SDS011;44475;53.206;-6.106;2022-11-20T06:21:18;2.92;;;1.70;;
58697;SDS011;44475;53.206;-6.106;2022-11-20T06:23:49;2.35;;;1.50;;
58697;SDS011;44475;53.206;-6.106;2022-11-20T06:26:26;2.70;;;1.50;;
58697;SDS011;44475;53.206;-6.106;2022-11-20T06:29:12;2.60;;;1.42;;
58697;SDS011;44475;53.206;-6.106;2022-11-20T06:31:38;2.78;;;1.58;;
58697;SDS011;44475;53.206;-6.106;2022-11-20T06:34:10;2.75;;;1.52;;
58697;SDS011;44475;53.206;-6.106;2022-11-20T06:36:36;2.55;;;1.42;;
58697;SDS011;44475;53.206;-6.106;2022-11-20T06:39:03;4.00;;;1.50;;
58697;SDS011;44475;53.206;-6.106;2022-11-20T06:41:35;2.05;;;1.50;;
58697;SDS011;44475;53.206;-6.106;2022-11-20T06:44:03;2.92;;;1.50;;
58697;SDS011;44475;53.206;-6.106;2022-11-20T06:46:31;2.63;;;1.58;;
58697;SDS011;44475;53.206;-6.106;2022-11-20T06:48:58;3.88;;;1.50;;
58697;SDS011;44475;53.206;-6.106;2022-11-20T06:51:25;4.47;;;1.70;;
58697;SDS011;44475;53.206;-6.106;2022-11-20T06:53:57;3.53;;;2.10;;
58697;SDS011;44475;53.206;-6.106;2022-11-20T06:56:32;2.95;;;1.60;;
58697;SDS011;44475;53.206;-6.106;2022-11-20T06:58:58;3.05;;;1.42;;
58697;SDS011;44475;53.206;-6.106;2022-11-20T07:01:28;2.95;;;1.50;;
58697;SDS011;44475;53.206;-6.106;2022-11-20T07:04:02;2.47;;;1.40;;
58697;SDS011;44475;53.206;-6.106;2022-11-20T07:06:35;3.58;;;1.50;;
58697;SDS011;44475;53.206;-6.106;2022-11-20T07:09:02;3.35;;;1.48;;
58697;SDS011;44475;53.206;-6.106;2022-11-20T07:11:30;3.20;;;1.50;;
58697;SDS011;44475;53.206;-6.106;2022-11-20T07:13:57;2.95;;;1.50;;
58697;SDS011;44475;53.206;-6.106;2022-11-20T07:16:23;3.05;;;1.50;;
58697;SDS011;44475;53.206;-6.106;2022-11-20T07:18:49;3.90;;;1.60;;
58697;SDS011;44475;53.206;-6.106;2022-11-20T07:21:15;3.03;;;1.50;;
58697;SDS011;44475;53.206;-6.106;2022-11-20T07:23:44;3.95;;;1.50;;
58697;SDS011;44475;53.206;-6.106;2022-11-20T07:26:11;3.22;;;1.55;;
58697;SDS011;44475;53.206;-6.106;2022-11-20T07:28:37;3.65;;;1.58;;
58697;SDS011;44475;53.206;-6.106;2022-11-20T07:31:11;3.05;;;1.60;;
58697;SDS011;44475;53.206;-6.106;2022-11-20T07:33:38;3.00;;;1.55;;
58697;SDS011;44475;53.206;-6.106;2022-11-20T07:36:04;4.30;;;1.75;;
58697;SDS011;44475;53.206;-6.106;2022-11-20T07:38:32;3.50;;;1.50;;
58697;SDS011;44475;53.206;-6.106;2022-11-20T07:40:58;2.08;;;1.35;;
58697;SDS011;44475;53.206;-6.106;2022-11-20T07:43:27;3.13;;;1.52;;
58697;SDS011;44475;53.206;-6.106;2022-11-20T07:45:57;2.78;;;1.48;;
58697;SDS011;44475;53.206;-6.106;2022-11-20T07:48:24;3.95;;;1.60;;
58697;SDS011;44475;53.206;-6.106;2022-11-20T07:50:53;3.13;;;1.55;;
58697;SDS011;44475;53.206;-6.106;2022-11-20T07:53:20;4.18;;;1.60;;
58697;SDS011;44475;53.206;-6.106;2022-11-20T07:55:47;2.17;;;1.30;;
58697;SDS011;44475;53.206;-6.106;2022-11-20T07:58:13;3.08;;;1.50;;
58697;SDS011;44475;53.206;-6.106;2022-11-20T08:00:40;3.40;;;1.45;;
58697;SDS011;44475;53.206;-6.106;2022-11-20T08:03:07;3.17;;;1.40;;
58697;SDS011;44475;53.206;-6.106;2022-11-20T08:05:39;3.58;;;1.50;;
58697;SDS011;44475;53.206;-6.106;2022-11-20T08:08:05;4.30;;;1.40;;
58697;SDS011;44475;53.206;-6.106;2022-11-20T08:10:32;4.40;;;1.70;;
58697;SDS011;44475;53.206;-6.106;2022-11-20T08:13:00;3.85;;;1.65;;
58697;SDS011;44475;53.206;-6.106;2022-11-20T08:15:47;4.07;;;1.42;;
58697;SDS011;44475;53.206;-6.106;2022-11-20T08:18:17;3.33;;;1.80;;
58697;SDS011;44475;53.206;-6.106;2022-11-20T08:20:44;3.58;;;1.40;;
58697;SDS011;44475;53.206;-6.106;2022-11-20T08:23:12;2.85;;;1.42;;
58697;SDS011;44475;53.206;-6.106;2022-11-20T08:25:40;4.43;;;1.58;;
58697;SDS011;44475;53.206;-6.106;2022-11-20T08:28:07;4.88;;;1.58;;
58697;SDS011;44475;53.206;-6.106;2022-11-20T08:30:39;3.30;;;1.55;;
58697;SDS011;44475;53.206;-6.106;2022-11-20T08:33:07;2.40;;;1.30;;
58697;SDS011;44475;53.206;-6.106;2022-11-20T08:35:34;2.42;;;1.35;;
58697;SDS011;44475;53.206;-6.106;2022-11-20T08:38:03;3.15;;;1.50;;
58697;SDS011;44475;53.206;-6.106;2022-11-20T08:40:31;3.28;;;1.50;;
58697;SDS011;44475;53.206;-6.106;2022-11-20T08:42:59;4.53;;;1.50;;
58697;SDS011;44475;53.206;-6.106;2022-11-20T08:45:27;3.92;;;1.60;;
58697;SDS011;44475;53.206;-6.106;2022-11-20T08:47:59;4.97;;;1.60;;
58697;SDS011;44475;53.206;-6.106;2022-11-20T08:50:35;3.38;;;1.60;;
58697;SDS011;44475;53.206;-6.106;2022-11-20T08:53:06;3.30;;;1.60;;
58697;SDS011;44475;53.206;-6.106;2022-11-20T08:55:33;3.47;;;1.60;;
58697;SDS011;44475;53.206;-6.106;2022-11-20T08:58:03;4.22;;;1.70;;
58697;SDS011;44475;53.206;-6.106;2022-11-20T09:00:43;4.30;;;1.70;;
58697;SDS011;44475;53.206;-6.106;2022-11-20T09:03:10;4.50;;;1.60;;
58697;SDS011;44475;53.206;-6.106;2022-11-20T09:05:40;5.40;;;1.70;;
58697;SDS011;44475;53.206;-6.106;2022-11-20T09:08:09;3.97;;;1.50;;
58697;SDS011;44475;53.206;-6.106;2022-11-20T09:10:37;3.30;;;1.45;;
58697;SDS011;44475;53.206;-6.106;2022-11-20T09:13:06;2.20;;;1.30;;
58697;SDS011;44475;53.206;-6.106;2022-11-20T09:15:34;3.67;;;1.67;;
58697;SDS011;44475;53.206;-6.106;2022-11-20T09:18:01;3.28;;;1.55;;
58697;SDS011;44475;53.206;-6.106;2022-11-20T09:20:39;2.65;;;1.35;;
58697;SDS011;44475;53.206;-6.106;2022-11-20T09:23:07;2.20;;;1.50;;
58697;SDS011;44475;53.206;-6.106;2022-11-20T09:25:33;2.55;;;1.50;;
58697;SDS011;44475;53.206;-6.106;2022-11-20T09:27:59;3.92;;;1.40;;
58697;SDS011;44475;53.206;-6.106;2022-11-20T09:30:26;3.13;;;1.60;;
58697;SDS011;44475;53.206;-6.106;2022-11-20T09:32:56;3.75;;;1.55;;
58697;SDS011;44475;53.206;-6.106;2022-11-20T09:35:25;3.95;;;1.58;;
58697;SDS011;44475;53.206;-6.106;2022-11-20T09:37:57;2.60;;;1.48;;
58697;SDS011;44475;53.206;-6.106;2022-11-20T09:40:38;2.30;;;1.40;;
58697;SDS011;44475;53.206;-6.106;2022-11-20T09:43:32;3.15;;;1.55;;
58697;SDS011;44475;53.206;-6.106;2022-11-20T09:46:45;3.63;;;1.60;;
58697;SDS011;44475;53.206;-6.106;2022-11-20T09:51:59;2.33;;;1.30;;
58697;SDS011;44475;53.206;-6.106;2022-11-20T09:54:41;2.58;;;1.52;;
58697;SDS011;44475;53.206;-6.106;2022-11-20T09:57:11;2.83;;;1.40;;
58697;SDS011;44475;53.206;-6.106;2022-11-20T09:59:49;2.80;;;1.45;;
58697;SDS011;44475;53.206;-6.106;2022-11-20T10:02:35;4.00;;;1.90;;
58697;SDS011;44475;53.206;-6.106;2022-11-20T10:08:14;2.42;;;1.20;;
58697;SDS011;44475;53.206;-6.106;2022-11-20T10:14:09;2.25;;;1.30;;
58697;SDS011;44475;53.206;-6.106;2022-11-20T10:34:01;2.08;;;1.13;;
58697;SDS011;44475;53.206;-6.106;2022-11-20T10:42:30;3.63;;;1.40;;
58697;SDS011;44475;53.206;-6.106;2022-11-20T10:48:24;3.63;;;1.52;;
58697;SDS011;44475;53.206;-6.106;2022-11-20T10:54:39;2.65;;;1.38;;
58697;SDS011;44475;53.206;-6.106;2022-11-20T10:56:48;2.17;;;1.30;;
58697;SDS011;44475;53.206;-6.106;2022-11-20T11:02:23;2.40;;;1.40;;
58697;SDS011;44475;53.206;-6.106;2022-11-20T11:04:57;1.83;;;1.30;;
58697;SDS011;44475;53.206;-6.106;2022-11-20T11:07:50;3.03;;;1.48;;
58697;SDS011;44475;53.206;-6.106;2022-11-20T11:10:36;2.38;;;1.40;;
58697;SDS011;44475;53.206;-6.106;2022-11-20T11:13:28;1.60;;;1.20;;
58697;SDS011;44475;53.206;-6.106;2022-11-20T11:15:58;2.35;;;1.40;;
58697;SDS011;44475;53.206;-6.106;2022-11-20T11:18:33;1.90;;;1.20;;
58697;SDS011;44475;53.206;-6.106;2022-11-20T11:21:01;2.03;;;1.30;;
58697;SDS011;44475;53.206;-6.106;2022-11-20T11:26:17;1.63;;;1.30;;
58697;SDS011;44475;53.206;-6.106;2022-11-20T11:29:02;2.08;;;1.20;;
58697;SDS011;44475;53.206;-6.106;2022-11-20T11:31:50;2.35;;;1.33;;
58697;SDS011;44475;53.206;-6.106;2022-11-20T11:34:44;1.95;;;1.30;;
58697;SDS011;44475;53.206;-6.106;2022-11-20T11:37:20;1.70;;;1.30;;
58697;SDS011;44475;53.206;-6.106;2022-11-20T11:40:01;1.85;;;1.23;;
58697;SDS011;44475;53.206;-6.106;2022-11-20T11:42:29;2.20;;;1.20;;
58697;SDS011;44475;53.206;-6.106;2022-11-20T11:45:02;1.67;;;1.25;;
58697;SDS011;44475;53.206;-6.106;2022-11-20T11:58:10;3.03;;;1.30;;
58697;SDS011;44475;53.206;-6.106;2022-11-20T12:02:10;1.83;;;1.27;;
58697;SDS011;44475;53.206;-6.106;2022-11-20T12:05:08;1.20;;;1.10;;
58697;SDS011;44475;53.206;-6.106;2022-11-20T12:08:15;2.30;;;1.30;;
58697;SDS011;44475;53.206;-6.106;2022-11-20T12:11:30;1.77;;;1.20;;
58697;SDS011;44475;53.206;-6.106;2022-11-20T12:14:27;1.20;;;1.10;;
58697;SDS011;44475;53.206;-6.106;2022-11-20T12:17:23;1.55;;;1.10;;
58697;SDS011;44475;53.206;-6.106;2022-11-20T12:19:49;1.33;;;1.10;;
58697;SDS011;44475;53.206;-6.106;2022-11-20T12:22:35;1.20;;;1.10;;
58697;SDS011;44475;53.206;-6.106;2022-11-20T12:36:58;1.17;;;1.10;;
58697;SDS011;44475;53.206;-6.106;2022-11-20T12:39:42;2.30;;;1.27;;
58697;SDS011;44475;53.206;-6.106;2022-11-20T12:53:39;2.80;;;1.20;;
58697;SDS011;44475;53.206;-6.106;2022-11-20T13:07:54;1.73;;;1.10;;
58697;SDS011;44475;53.206;-6.106;2022-11-20T13:13:59;2.35;;;1.30;;
58697;SDS011;44475;53.206;-6.106;2022-11-20T13:19:19;1.42;;;1.20;;
58697;SDS011;44475;53.206;-6.106;2022-11-20T13:21:49;1.33;;;1.13;;
58697;SDS011;44475;53.206;-6.106;2022-11-20T13:29:40;1.63;;;1.20;;
58697;SDS011;44475;53.206;-6.106;2022-11-20T13:32:27;1.40;;;1.30;;
58697;SDS011;44475;53.206;-6.106;2022-11-20T13:34:59;1.25;;;1.15;;
58697;SDS011;44475;53.206;-6.106;2022-11-20T13:37:35;2.22;;;1.20;;
58697;SDS011;44475;53.206;-6.106;2022-11-20T13:40:12;1.55;;;1.20;;
58697;SDS011;44475;53.206;-6.106;2022-11-20T13:45:26;2.45;;;1.40;;
58697;SDS011;44475;53.206;-6.106;2022-11-20T13:48:03;2.75;;;1.20;;
58697;SDS011;44475;53.206;-6.106;2022-11-20T13:50:47;1.30;;;1.20;;
58697;SDS011;44475;53.206;-6.106;2022-11-20T14:05:51;1.52;;;1.20;;
58697;SDS011;44475;53.206;-6.106;2022-11-20T14:09:13;1.30;;;1.20;;
58697;SDS011;44475;53.206;-6.106;2022-11-20T14:12:02;1.85;;;1.10;;
58697;SDS011;44475;53.206;-6.106;2022-11-20T14:14:57;2.13;;;1.30;;
58697;SDS011;44475;53.206;-6.106;2022-11-20T14:20:31;1.38;;;1.20;;
58697;SDS011;44475;53.206;-6.106;2022-11-20T14:23:04;3.07;;;1.17;;
58697;SDS011;44475;53.206;-6.106;2022-11-20T14:25:41;2.78;;;1.25;;
58697;SDS011;44475;53.206;-6.106;2022-11-20T14:28:20;1.88;;;1.38;;
58697;SDS011;44475;53.206;-6.106;2022-11-20T14:30:58;4.07;;;1.40;;
58697;SDS011;44475;53.206;-6.106;2022-11-20T14:33:25;6.32;;;1.55;;
58697;SDS011;44475;53.206;-6.106;2022-11-20T14:35:53;4.95;;;1.40;;
58697;SDS011;44475;53.206;-6.106;2022-11-20T14:38:34;10.88;;;1.70;;
58697;SDS011;44475;53.206;-6.106;2022-11-20T14:41:16;15.80;;;2.05;;
58697;SDS011;44475;53.206;-6.106;2022-11-20T14:43:55;6.68;;;1.60;;
58697;SDS011;44475;53.206;-6.106;2022-11-20T14:46:34;9.48;;;1.50;;
58697;SDS011;44475;53.206;-6.106;2022-11-20T14:49:01;3.20;;;1.40;;
58697;SDS011;44475;53.206;-6.106;2022-11-20T14:52:02;3.08;;;1.50;;
58697;SDS011;44475;53.206;-6.106;2022-11-20T14:57:31;4.55;;;1.40;;
58697;SDS011;44475;53.206;-6.106;2022-11-20T15:02:43;5.70;;;1.50;;
58697;SDS011;44475;53.206;-6.106;2022-11-20T15:05:12;4.30;;;1.50;;
58697;SDS011;44475;53.206;-6.106;2022-11-20T15:08:07;6.28;;;1.70;;
58697;SDS011;44475;53.206;-6.106;2022-11-20T15:10:55;3.58;;;1.30;;
58697;SDS011;44475;53.206;-6.106;2022-11-20T15:13:36;2.38;;;1.40;;
58697;SDS011;44475;53.206;-6.106;2022-11-20T15:16:23;2.58;;;1.60;;
58697;SDS011;44475;53.206;-6.106;2022-11-20T15:19:16;4.55;;;1.58;;
58697;SDS011;44475;53.206;-6.106;2022-11-20T15:22:04;1.98;;;1.42;;
58697;SDS011;44475;53.206;-6.106;2022-11-20T15:24:46;4.03;;;1.58;;
58697;SDS011;44475;53.206;-6.106;2022-11-20T15:27:14;4.22;;;1.40;;
58697;SDS011;44475;53.206;-6.106;2022-11-20T15:29:41;4.55;;;1.70;;
58697;SDS011;44475;53.206;-6.106;2022-11-20T15:32:13;5.97;;;1.65;;
58697;SDS011;44475;53.206;-6.106;2022-11-20T15:34:42;3.28;;;1.42;;
58697;SDS011;44475;53.206;-6.106;2022-11-20T15:37:15;4.90;;;1.60;;
58697;SDS011;44475;53.206;-6.106;2022-11-20T15:39:41;3.45;;;1.60;;
58697;SDS011;44475;53.206;-6.106;2022-11-20T15:42:10;4.80;;;1.60;;
58697;SDS011;44475;53.206;-6.106;2022-11-20T15:44:37;4.65;;;1.50;;
58697;SDS011;44475;53.206;-6.106;2022-11-20T15:47:03;3.30;;;1.55;;
58697;SDS011;44475;53.206;-6.106;2022-11-20T15:49:31;3.30;;;1.50;;
58697;SDS011;44475;53.206;-6.106;2022-11-20T15:52:12;4.47;;;1.63;;
58697;SDS011;44475;53.206;-6.106;2022-11-20T15:54:40;3.90;;;1.70;;
58697;SDS011;44475;53.206;-6.106;2022-11-20T15:57:20;2.90;;;1.80;;
58697;SDS011;44475;53.206;-6.106;2022-11-20T15:59:47;3.40;;;1.50;;
58697;SDS011;44475;53.206;-6.106;2022-11-20T16:02:15;3.78;;;1.80;;
58697;SDS011;44475;53.206;-6.106;2022-11-20T16:04:47;2.90;;;1.73;;
58697;SDS011;44475;53.206;-6.106;2022-11-20T16:07:14;2.75;;;1.52;;
58697;SDS011;44475;53.206;-6.106;2022-11-20T16:09:43;3.15;;;1.77;;
58697;SDS011;44475;53.206;-6.106;2022-11-20T16:12:18;2.40;;;1.50;;
58697;SDS011;44475;53.206;-6.106;2022-11-20T16:15:03;5.47;;;1.63;;
58697;SDS011;44475;53.206;-6.106;2022-11-20T16:17:50;2.60;;;1.63;;
58697;SDS011;44475;53.206;-6.106;2022-11-20T16:20:17;4.82;;;1.70;;
58697;SDS011;44475;53.206;-6.106;2022-11-20T16:22:44;3.75;;;1.70;;
58697;SDS011;44475;53.206;-6.106;2022-11-20T16:25:14;2.90;;;1.73;;
58697;SDS011;44475;53.206;-6.106;2022-11-20T16:27:42;3.00;;;1.70;;
58697;SDS011;44475;53.206;-6.106;2022-11-20T16:30:20;3.00;;;1.60;;
58697;SDS011;44475;53.206;-6.106;2022-11-20T16:32:47;2.00;;;1.60;;
58697;SDS011;44475;53.206;-6.106;2022-11-20T16:35:13;3.50;;;1.70;;
58697;SDS011;44475;53.206;-6.106;2022-11-20T16:37:40;2.15;;;1.63;;
58697;SDS011;44475;53.206;-6.106;2022-11-20T16:40:09;4.85;;;1.98;;
58697;SDS011;44475;53.206;-6.106;2022-11-20T16:42:40;3.17;;;1.98;;
58697;SDS011;44475;53.206;-6.106;2022-11-20T16:45:07;2.78;;;1.77;;
58697;SDS011;44475;53.206;-6.106;2022-11-20T16:47:34;4.32;;;1.90;;
58697;SDS011;44475;53.206;-6.106;2022-11-20T16:50:01;2.53;;;1.75;;
58697;SDS011;44475;53.206;-6.106;2022-11-20T16:52:47;3.65;;;1.90;;
58697;SDS011;44475;53.206;-6.106;2022-11-20T16:55:16;2.65;;;1.80;;
58697;SDS011;44475;53.206;-6.106;2022-11-20T16:57:47;2.97;;;1.90;;
58697;SDS011;44475;53.206;-6.106;2022-11-20T17:00:25;2.53;;;1.80;;
58697;SDS011;44475;53.206;-6.106;2022-11-20T17:02:57;4.75;;;1.90;;
58697;SDS011;44475;53.206;-6.106;2022-11-20T17:05:23;3.17;;;1.73;;
58697;SDS011;44475;53.206;-6.106;2022-11-20T17:07:50;5.28;;;2.00;;
58697;SDS011;44475;53.206;-6.106;2022-11-20T17:10:16;2.70;;;1.90;;
58697;SDS011;44475;53.206;-6.106;2022-11-20T17:12:42;3.30;;;2.10;;
58697;SDS011;44475;53.206;-6.106;2022-11-20T17:15:09;4.22;;;2.00;;
58697;SDS011;44475;53.206;-6.106;2022-11-20T17:17:35;3.42;;;2.00;;
58697;SDS011;44475;53.206;-6.106;2022-11-20T17:20:08;3.55;;;1.83;;